Time;durP1;ratioP1;P1;durP2;ratioP2;P2;SDS_P1;SDS_P2;PMS_P1;PMS_P2;Temp;Humidity;BMP_temperature;BMP_pressure;BME280_temperature;BME280_humidity;BME280_pressure;Samples;Min_cycle;Max_cycle;Signal;HPM_P1;HPM_P2
2021/10/27 08:23:27;;;;;;;6.40;3.77;;;;;;;10.34;91.20;99973.59;5103777;28;20568;-79
2021/10/27 08:25:56;;;;;;;5.13;3.80;;;;;;;10.93;90.03;99972.69;5104229;28;38888;-81
2021/10/27 08:28:33;;;;;;;4.60;3.73;;;;;;;11.53;86.83;99968.91;5103688;28;40886;-81
2021/10/27 08:31:06;;;;;;;5.53;3.47;;;;;;;12.04;83.85;99966.44;5086330;28;41873;-74
2021/10/27 08:33:45;;;;;;;4.47;3.10;;;;;;;12.38;81.60;99974.38;5105335;28;41451;-75
2021/10/27 08:36:15;;;;;;;4.73;2.83;;;;;;;12.59;79.67;99970.63;5102583;28;38613;-78
2021/10/27 08:38:44;;;;;;;4.97;3.67;;;;;;;12.77;78.52;99971.41;5087016;28;41070;-79
2021/10/27 08:41:12;;;;;;;3.67;2.70;;;;;;;12.95;77.55;99969.59;5086753;28;42825;-76
2021/10/27 08:43:41;;;;;;;4.33;3.07;;;;;;;13.14;77.09;99965.00;5104433;28;41000;-78
2021/10/27 08:46:12;;;;;;;4.00;3.03;;;;;;;13.30;75.93;99959.69;5103620;28;39766;-76
2021/10/27 08:48:44;;;;;;;5.13;3.37;;;;;;;13.47;74.71;99966.72;5110701;28;40934;-76
2021/10/27 08:51:12;;;;;;;6.63;3.77;;;;;;;13.60;73.97;99967.72;5109485;28;43475;-75
2021/10/27 08:53:40;;;;;;;3.73;2.63;;;;;;;13.71;73.15;99957.34;5109414;28;41150;-74
2021/10/27 08:56:10;;;;;;;4.43;3.20;;;;;;;13.98;72.21;99963.69;5111823;28;40118;-73
2021/10/27 08:58:40;;;;;;;4.00;3.03;;;;;;;14.21;71.30;99964.16;5111316;28;42857;-75
2021/10/27 09:01:13;;;;;;;3.30;2.83;;;;;;;14.48;70.71;99967.84;5109025;28;42568;-77
2021/10/27 09:04:04;;;;;;;5.07;2.73;;;;;;;14.78;69.40;99964.25;5105030;28;42087;-78
2021/10/27 09:06:37;;;;;;;3.87;2.83;;;;;;;15.08;67.77;99971.16;5106010;28;39710;-77
2021/10/27 09:34:37;;;;;;;2.93;2.50;;;;;;;16.56;63.96;99960.50;5090409;28;42809;-77
2021/10/27 10:05:29;;;;;;;3.10;2.33;;;;;;;18.38;57.66;99957.78;5089479;28;41014;-76
2021/10/27 10:07:57;;;;;;;5.13;2.67;;;;;;;18.45;56.36;99968.88;5088731;28;42818;-78
2021/10/27 10:10:24;;;;;;;3.10;2.80;;;;;;;18.45;56.63;99955.47;5087836;28;42314;-79
2021/10/27 10:12:54;;;;;;;3.43;2.57;;;;;;;18.58;56.96;99961.63;5090708;28;40621;-77
2021/10/27 10:15:24;;;;;;;5.13;2.93;;;;;;;18.84;55.97;99970.31;5071017;28;41664;-75
2021/10/27 10:17:54;;;;;;;3.20;2.53;;;;;;;18.95;55.17;99963.13;5089650;28;41891;-76
2021/10/27 10:20:24;;;;;;;2.20;2.00;;;;;;;19.05;55.47;99967.75;5120108;27;42627;-76
2021/10/27 10:22:52;;;;;;;4.67;2.57;;;;;;;19.10;55.85;99947.63;5087096;28;38463;-83
2021/10/27 10:25:30;;;;;;;2.40;2.20;;;;;;;19.21;55.04;99973.63;5089913;28;42262;-77
2021/10/27 10:28:16;;;;;;;3.53;2.33;;;;;;;19.09;55.15;99969.22;5071154;28;42348;-77
2021/10/27 10:30:49;;;;;;;2.27;2.00;;;;;;;18.97;55.33;99961.19;5067657;28;40641;-80
2021/10/27 10:33:19;;;;;;;2.90;2.33;;;;;;;18.87;55.48;99970.94;5070063;28;39783;-78
2021/10/27 10:35:57;;;;;;;2.10;1.87;;;;;;;18.78;55.38;99966.31;5068856;28;40219;-78
2021/10/27 10:38:34;;;;;;;3.43;2.27;;;;;;;18.56;55.73;99966.22;5071407;28;42773;-77
2021/10/27 11:02:20;;;;;;;2.13;1.93;;;;;;;18.53;55.92;99956.59;5019935;28;41513;-78
2021/10/27 11:24:35;;;;;;;2.20;1.83;;;;;;;19.01;54.90;99941.19;5103237;28;40882;-77
2021/10/27 11:27:18;;;;;;;4.27;2.07;;;;;;;19.11;55.58;99935.06;5103413;28;42040;-79
2021/10/27 11:38:14;;;;;;;1.50;1.37;;;;;;;18.98;54.98;99936.03;5083115;28;42185;-81
2021/10/27 11:40:45;;;;;;;1.93;1.60;;;;;;;18.93;55.24;99932.84;5099387;28;43100;-82
2021/10/27 11:43:19;;;;;;;1.93;1.70;;;;;;;18.89;55.27;99928.72;5115070;27;40148;-77
2021/10/27 11:45:56;;;;;;;3.47;1.43;;;;;;;18.83;55.46;99926.53;5105519;28;40640;-84
2021/10/27 11:48:31;;;;;;;1.60;1.50;;;;;;;18.82;55.65;99914.06;5118272;27;42734;-81
2021/10/27 11:51:00;;;;;;;1.67;1.40;;;;;;;18.86;55.86;99920.06;5137392;27;41783;-81
2021/10/27 11:53:30;;;;;;;1.57;1.47;;;;;;;18.82;55.80;99914.06;5105194;28;39368;-80
2021/10/27 11:56:10;;;;;;;2.73;1.50;;;;;;;18.79;55.75;99919.69;5086926;28;40776;-80
2021/10/27 11:58:40;;;;;;;2.60;1.73;;;;;;;18.87;55.66;99908.34;5104127;28;41759;-75
2021/10/27 12:01:08;;;;;;;1.67;1.47;;;;;;;18.90;55.38;99911.66;5102799;28;41295;-80
2021/10/27 12:03:36;;;;;;;2.83;1.60;;;;;;;18.97;55.46;99907.47;5086285;28;37863;-81
2021/10/27 12:06:07;;;;;;;2.27;1.50;;;;;;;18.97;55.04;99902.13;5102100;28;41803;-80
2021/10/27 12:08:42;;;;;;;1.43;1.33;;;;;;;18.99;55.29;99905.53;5103329;28;42774;-82
2021/10/27 12:11:31;;;;;;;1.67;1.57;;;;;;;19.02;55.23;99896.38;5085598;28;41913;-80
2021/10/27 12:14:15;;;;;;;2.17;1.60;;;;;;;19.11;55.23;99894.78;5066315;28;39184;-76
2021/10/27 12:19:26;;;;;;;1.50;1.40;;;;;;;19.13;54.99;99876.72;5049743;28;42125;-86
2021/10/27 12:21:56;;;;;;;4.20;1.83;;;;;;;19.21;54.56;99869.72;5052852;28;40827;-78
2021/10/27 12:24:26;;;;;;;2.57;1.40;;;;;;;19.27;54.67;99865.69;5070337;28;40244;-84
2021/10/27 12:27:01;;;;;;;1.30;1.20;;;;;;;19.49;55.09;99876.41;5074849;28;42506;-81
2021/10/27 12:29:30;;;;;;;1.67;1.37;;;;;;;19.54;54.21;99862.56;5090074;28;42729;-85
2021/10/27 12:32:10;;;;;;;2.37;1.30;;;;;;;19.51;54.11;99855.63;5089651;28;41877;-79
2021/10/27 12:34:46;;;;;;;1.57;1.33;;;;;;;19.62;54.13;99873.53;5089901;28;39903;-75
2021/10/27 12:37:29;;;;;;;1.43;1.20;;;;;;;19.55;53.74;99857.06;5072310;28;40814;-81
2021/10/27 12:40:23;;;;;;;1.33;1.23;;;;;;;19.72;53.87;99867.25;5069491;28;42293;-79
2021/10/27 12:43:04;;;;;;;1.20;1.10;;;;;;;19.87;53.30;99872.34;5066932;28;41179;-81
2021/10/27 12:45:33;;;;;;;3.23;1.23;;;;;;;19.85;52.54;99855.47;5069293;28;39137;-89
2021/10/27 12:48:05;;;;;;;1.10;1.10;;;;;;;20.21;52.10;99873.84;5073169;28;40774;-82
2021/10/27 12:50:33;;;;;;;2.83;0.93;;;;;;;20.31;51.60;99869.38;5087458;28;42962;-81
2021/10/27 12:53:03;;;;;;;1.30;1.20;;;;;;;20.39;50.89;99880.38;5088291;28;41952;-83
2021/10/27 12:55:33;;;;;;;0.93;0.93;;;;;;;20.46;50.93;99866.34;5089208;28;40005;-79
2021/10/27 12:58:07;;;;;;;0.80;0.80;;;;;;;20.51;51.20;99853.38;5071280;28;40630;-80
2021/10/27 13:11:50;;;;;;;0.83;0.80;;;;;;;21.49;48.45;99862.47;5081513;28;42325;-78
2021/10/27 13:20:07;;;;;;;1.00;0.77;;;;;;;21.55;47.92;99861.88;5070703;28;40970;-77
2021/10/27 13:22:42;;;;;;;1.00;0.90;;;;;;;21.68;48.71;99862.44;5088885;28;43427;-76
2021/10/27 13:30:49;;;;;;;1.60;0.80;;;;;;;21.42;48.16;99869.38;5075782;28;40895;-79
2021/10/27 13:33:19;;;;;;;1.00;1.00;;;;;;;21.26;48.74;99850.25;5072674;28;42332;-80
2021/10/27 13:35:47;;;;;;;0.60;0.60;;;;;;;21.23;49.08;99847.81;5068918;28;41292;-77
2021/10/27 13:38:16;;;;;;;0.70;0.70;;;;;;;21.21;49.02;99847.09;5070946;28;40228;-79
2021/10/27 13:40:46;;;;;;;1.50;0.90;;;;;;;21.28;48.30;99859.00;5089359;28;40667;-78
2021/10/27 13:43:17;;;;;;;0.73;0.70;;;;;;;21.40;48.63;99847.09;5089860;28;42775;-76
2021/10/27 13:45:57;;;;;;;0.70;0.70;;;;;;;21.47;48.19;99849.13;5071575;28;41197;-80
2021/10/27 13:48:35;;;;;;;1.70;0.70;;;;;;;21.37;47.99;99831.25;5075516;28;39585;-81
2021/10/27 14:05:57;;;;;;;0.87;0.70;;;;;;;21.37;47.63;99845.56;5088890;28;39891;-77
2021/10/27 14:07:43;;;;;;;0.70;0.70;;;;;;;20.58;49.41;99817.69;5068356;28;42189;-77
2021/10/27 14:10:14;;;;;;;0.50;0.50;;;;;;;20.37;49.73;99820.44;5069388;28;39759;-77
2021/10/27 14:12:46;;;;;;;1.13;0.67;;;;;;;20.25;50.00;99821.47;5066444;28;41088;-78
2021/10/27 14:15:36;;;;;;;4.80;3.00;;;;;;;20.00;50.17;99800.38;5070532;28;41820;-76
2021/10/27 14:40:31;;;;;;;0.70;0.60;;;;;;;19.22;51.24;99800.75;5070380;28;41202;-77
2021/10/27 14:51:25;;;;;;;2.70;1.70;;;;;;;18.93;52.16;99773.63;5088105;28;42318;-81
2021/10/27 15:15:32;;;;;;;0.50;0.50;;;;;;;18.47;52.23;99769.28;5088076;28;43695;-77
2021/10/27 15:21:45;;;;;;;0.50;0.50;;;;;;;17.80;54.40;99750.50;5062771;28;43757;-75
2021/10/27 15:32:53;;;;;;;1.10;1.00;;;;;;;17.58;55.51;99743.25;5039026;28;41436;-76
2021/10/27 15:35:35;;;;;;;2.13;1.30;;;;;;;17.51;55.53;99739.34;5110518;27;42899;-77
2021/10/27 15:41:05;;;;;;;1.90;1.13;;;;;;;17.35;55.81;99746.84;5123838;27;39250;-79
2021/10/27 15:43:46;;;;;;;1.03;1.03;;;;;;;17.20;56.21;99746.16;5117428;27;42790;-82
2021/10/27 15:51:37;;;;;;;1.83;1.57;;;;;;;16.54;58.01;99717.25;5124238;27;40883;-80
2021/10/27 15:54:05;;;;;;;1.77;1.47;;;;;;;16.32;58.43;99719.78;5124757;27;41678;-83
2021/10/27 15:56:34;;;;;;;1.40;1.30;;;;;;;16.03;58.79;99700.50;5123956;27;41802;-79
2021/10/27 15:59:03;;;;;;;1.10;0.93;;;;;;;15.84;59.43;99695.59;5108283;27;41082;-77
2021/10/27 16:01:31;;;;;;;36.67;21.70;;;;;;;15.76;59.49;99712.16;5122936;27;40435;-76
2021/10/27 16:03:58;;;;;;;22.53;13.23;;;;;;;15.60;60.14;99713.31;5124884;27;42697;-79
2021/10/27 16:06:27;;;;;;;13.93;8.10;;;;;;;15.46;60.29;99723.13;5123768;27;42692;-77
2021/10/27 16:08:59;;;;;;;11.60;6.97;;;;;;;15.31;60.33;99721.50;5124258;27;41280;-77
2021/10/27 16:11:26;;;;;;;6.37;3.87;;;;;;;15.16;60.57;99725.22;5124046;27;40020;-77
2021/10/27 16:13:53;;;;;;;4.97;3.23;;;;;;;15.02;60.48;99730.63;5124499;27;40977;-77
2021/10/27 16:16:22;;;;;;;6.20;3.07;;;;;;;14.88;60.96;99728.00;5104384;27;42637;-77
2021/10/27 16:18:50;;;;;;;3.73;2.77;;;;;;;14.72;60.67;99720.16;5123822;27;42615;-77
2021/10/27 16:21:18;;;;;;;4.13;1.97;;;;;;;14.62;61.03;99722.56;5124113;27;40184;-79
2021/10/27 16:23:46;;;;;;;2.93;1.63;;;;;;;14.49;61.22;99719.00;5107917;27;42452;-78
2021/10/27 16:26:14;;;;;;;3.33;2.00;;;;;;;14.36;61.45;99723.38;5124242;27;42808;-75
2021/10/27 16:28:41;;;;;;;2.30;1.93;;;;;;;14.23;62.03;99725.09;5120417;27;40944;-77
2021/10/27 16:31:09;;;;;;;1.63;1.50;;;;;;;14.11;62.20;99728.53;5123295;27;39814;-75
2021/10/27 16:33:38;;;;;;;2.57;2.10;;;;;;;13.99;62.35;99730.16;5125993;27;43196;-75
2021/10/27 16:36:06;;;;;;;1.77;1.43;;;;;;;13.77;62.33;99706.69;5124828;27;42821;-76
2021/10/27 16:38:34;;;;;;;2.20;1.90;;;;;;;13.75;62.33;99732.56;5110215;27;41358;-76
2021/10/27 16:41:01;;;;;;;1.83;1.43;;;;;;;13.66;62.69;99733.13;5110664;28;39284;-78
2021/10/27 16:43:30;;;;;;;1.87;1.40;;;;;;;13.54;62.54;99733.88;5110341;28;42596;-76
2021/10/27 16:45:58;;;;;;;1.57;1.30;;;;;;;13.45;62.80;99731.78;5110239;28;42009;-76
2021/10/27 16:48:26;;;;;;;1.53;1.30;;;;;;;13.35;63.32;99727.97;5092706;28;42053;-78
2021/10/27 16:50:55;;;;;;;2.10;1.50;;;;;;;13.18;63.10;99716.50;5109025;28;39693;-80
2021/10/27 16:53:24;;;;;;;1.13;1.03;;;;;;;13.14;63.12;99730.03;5093480;28;41694;-75
2021/10/27 16:55:52;;;;;;;1.40;1.23;;;;;;;13.06;63.45;99733.16;5092252;28;41927;-75
2021/10/27 16:58:20;;;;;;;1.47;1.37;;;;;;;12.98;63.33;99735.44;5109504;28;42414;-75
2021/10/27 17:00:48;;;;;;;1.57;1.03;;;;;;;12.83;63.63;99726.53;5109418;28;39616;-79
2021/10/27 17:03:15;;;;;;;1.40;1.30;;;;;;;12.80;64.00;99733.81;5092410;28;42076;-76
2021/10/27 17:05:45;;;;;;;1.37;1.00;;;;;;;12.71;63.98;99731.69;5110100;28;42793;-75
2021/10/27 17:08:17;;;;;;;1.33;1.23;;;;;;;12.52;64.24;99721.25;5110582;28;41854;-75
2021/10/27 17:10:45;;;;;;;1.80;1.37;;;;;;;12.55;64.49;99737.88;5107778;28;39965;-78
2021/10/27 17:13:13;;;;;;;1.37;1.27;;;;;;;12.49;64.73;99729.38;5109899;28;41964;-78
2021/10/27 17:15:40;;;;;;;1.67;1.57;;;;;;;12.42;64.91;99742.16;5108707;28;43707;-77
2021/10/27 17:18:08;;;;;;;1.43;1.23;;;;;;;12.36;64.97;99737.22;5090592;28;41407;-78
2021/10/27 17:20:36;;;;;;;2.13;1.80;;;;;;;12.20;64.96;99720.41;5108864;28;38926;-77
2021/10/27 17:23:04;;;;;;;1.87;1.53;;;;;;;12.20;65.11;99736.34;5111355;28;42491;-78
2021/10/27 17:25:33;;;;;;;1.63;1.53;;;;;;;12.16;65.35;99740.09;5107292;28;47647;-76
2021/10/27 17:28:00;;;;;;;2.80;2.57;;;;;;;12.02;65.56;99729.34;5091573;28;41049;-77
2021/10/27 17:30:28;;;;;;;2.20;2.00;;;;;;;12.01;65.81;99730.28;5107865;28;38999;-77
2021/10/27 17:32:58;;;;;;;1.93;1.77;;;;;;;11.94;65.67;99729.78;5109793;28;40430;-76
2021/10/27 17:35:26;;;;;;;2.53;2.00;;;;;;;11.76;66.05;99713.03;5116519;28;42213;-76
2021/10/27 17:37:54;;;;;;;2.50;2.30;;;;;;;11.83;66.20;99742.78;5114348;28;42740;-78
2021/10/27 17:40:29;;;;;;;2.37;2.07;;;;;;;11.72;66.70;99730.06;5096891;28;39448;-78
2021/10/27 17:42:59;;;;;;;4.00;3.47;;;;;;;11.71;66.20;99738.94;5115476;28;41217;-77
2021/10/27 17:45:34;;;;;;;2.53;1.83;;;;;;;11.65;66.44;99743.72;5097620;28;42491;-78
2021/10/27 17:48:05;;;;;;;2.20;2.00;;;;;;;11.58;66.75;99737.88;5111227;27;41841;-77
2021/10/27 17:50:41;;;;;;;2.43;2.23;;;;;;;11.52;66.80;99740.84;5110087;28;40844;-77
2021/10/27 17:58:42;;;;;;;3.20;2.67;;;;;;;11.29;67.28;99746.47;5089698;28;42259;-77
2021/10/27 18:01:12;;;;;;;2.80;2.50;;;;;;;11.25;67.35;99750.25;5088784;28;40089;-76
2021/10/27 18:03:43;;;;;;;3.33;1.63;;;;;;;11.19;67.39;99758.50;5103083;28;42770;-76
2021/10/27 18:06:12;;;;;;;2.23;1.93;;;;;;;11.13;67.31;99757.00;5108056;28;42627;-77
2021/10/27 18:08:42;;;;;;;2.47;2.27;;;;;;;11.07;67.88;99757.31;5109527;28;42052;-77
2021/10/27 18:11:13;;;;;;;3.60;2.27;;;;;;;11.01;67.79;99757.59;5109333;28;39577;-77
2021/10/27 18:13:45;;;;;;;4.73;2.47;;;;;;;10.93;67.87;99755.34;5110331;28;42644;-77
2021/10/27 18:16:18;;;;;;;3.53;1.97;;;;;;;10.91;67.87;99759.00;5108440;28;42868;-78
2021/10/27 18:18:51;;;;;;;3.07;2.13;;;;;;;10.85;68.22;99756.69;5092497;28;42173;-77
2021/10/27 18:21:23;;;;;;;2.73;2.10;;;;;;;10.80;68.12;99757.75;5108727;28;38826;-78
2021/10/27 18:24:13;;;;;;;2.33;1.90;;;;;;;10.69;68.33;99745.97;5092322;28;40635;-78
2021/10/27 18:37:39;;;;;;;1.87;1.70;;;;;;;10.47;68.66;99750.59;5091252;28;42037;-80
2021/10/27 18:40:18;;;;;;;1.90;1.63;;;;;;;10.44;69.00;99751.59;5110357;28;43650;-79
2021/10/27 18:42:49;;;;;;;2.20;1.67;;;;;;;10.40;69.00;99747.34;5091449;28;40626;-77
2021/10/27 18:45:19;;;;;;;2.40;1.90;;;;;;;10.23;69.05;99720.84;5143345;27;42710;-81
2021/10/27 18:47:47;;;;;;;2.50;1.70;;;;;;;10.30;68.97;99748.72;5092170;28;43416;-83
2021/10/27 18:50:16;;;;;;;1.83;1.60;;;;;;;10.27;69.10;99739.13;5109403;28;42892;-80
2021/10/27 18:52:54;;;;;;;1.67;1.53;;;;;;;10.22;69.09;99751.75;5096677;28;39459;-82
2021/10/27 18:55:42;;;;;;;2.50;2.30;;;;;;;10.16;69.13;99741.38;5090773;28;40918;-81
2021/10/27 18:58:24;;;;;;;2.20;1.80;;;;;;;10.02;69.51;99723.50;5070932;28;42214;-80
2021/10/27 19:01:03;;;;;;;2.00;1.73;;;;;;;9.85;69.53;99698.78;5104483;28;42239;-79
2021/10/27 19:03:54;;;;;;;2.13;1.60;;;;;;;10.03;69.46;99742.88;5071461;28;38971;-79
2021/10/27 19:11:54;;;;;;;4.23;1.80;;;;;;;9.80;69.65;99721.91;5080538;28;42101;-79
2021/10/27 19:14:27;;;;;;;2.13;1.60;;;;;;;9.82;70.16;99730.66;5109003;28;40933;-78
2021/10/27 19:16:57;;;;;;;2.13;1.93;;;;;;;9.85;69.92;99741.09;5108609;28;40739;-78
2021/10/27 19:19:25;;;;;;;2.33;2.10;;;;;;;9.78;70.20;99734.34;5091289;28;42861;-77
2021/10/27 19:21:52;;;;;;;2.20;1.90;;;;;;;9.78;70.47;99744.94;5108358;28;41083;-77
2021/10/27 19:24:29;;;;;;;3.00;2.10;;;;;;;9.67;70.51;99730.41;5107896;28;39157;-77
2021/10/27 19:27:01;;;;;;;2.53;2.20;;;;;;;9.70;70.70;99738.22;5108135;28;41575;-76
2021/10/27 19:29:31;;;;;;;3.03;2.57;;;;;;;9.68;70.46;99740.06;5108205;28;43831;-77
2021/10/27 19:32:18;;;;;;;2.60;2.40;;;;;;;9.60;70.66;99726.34;5108238;28;41058;-77
2021/10/27 20:07:57;;;;;;;6.00;2.60;;;;;;;9.14;71.88;99706.34;5106476;28;39398;-78
2021/10/27 20:10:53;;;;;;;3.43;2.43;;;;;;;9.24;72.20;99722.66;5087967;28;41515;-78
2021/10/27 20:16:38;;;;;;;2.90;2.57;;;;;;;9.09;72.04;99702.19;5110400;28;42121;-76
2021/10/27 20:19:14;;;;;;;4.17;2.70;;;;;;;9.06;72.24;99695.22;5111973;28;39579;-77
2021/10/27 20:27:28;;;;;;;3.50;2.43;;;;;;;9.11;72.37;99709.13;5121278;27;43290;-79
2021/10/27 20:30:36;;;;;;;2.80;2.50;;;;;;;9.11;72.60;99730.25;5114765;27;39895;-79
2021/10/27 20:49:42;;;;;;;2.43;2.07;;;;;;;8.79;72.56;99710.47;5089861;28;42305;-78
2021/10/27 20:52:14;;;;;;;2.97;2.30;;;;;;;8.63;72.59;99688.28;5106340;28;39057;-78
2021/10/27 20:54:46;;;;;;;3.53;2.03;;;;;;;8.58;72.44;99684.94;5072710;28;41735;-77
2021/10/27 20:57:21;;;;;;;5.37;2.67;;;;;;;8.65;72.54;99703.09;5090984;28;43806;-76
2021/10/27 20:59:56;;;;;;;3.93;3.00;;;;;;;8.62;73.01;99708.53;5089723;28;41896;-78
2021/10/27 21:13:23;;;;;;;3.17;2.30;;;;;;;8.46;72.96;99706.56;5074243;28;40137;-78
2021/10/27 21:15:51;;;;;;;2.13;1.93;;;;;;;8.44;73.19;99703.13;5090148;28;41887;-76
2021/10/27 21:18:18;;;;;;;2.23;1.87;;;;;;;8.42;73.32;99704.97;5091551;28;42716;-77
2021/10/27 21:20:46;;;;;;;2.30;2.10;;;;;;;8.35;73.09;99698.22;5090496;28;42354;-75
2021/10/27 21:23:14;;;;;;;3.33;2.73;;;;;;;8.14;73.27;99669.13;5111652;27;41370;-78
2021/10/27 21:25:43;;;;;;;6.33;3.30;;;;;;;8.22;73.17;99682.84;5109835;28;41865;-79
2021/10/27 21:28:23;;;;;;;4.93;2.63;;;;;;;8.32;73.51;99695.69;5093405;28;41704;-76
2021/10/27 21:31:05;;;;;;;2.93;2.63;;;;;;;8.26;73.18;99700.28;5093747;28;41088;-76
2021/10/27 21:44:30;;;;;;;2.17;1.70;;;;;;;8.03;73.21;99689.78;5109871;28;39770;-77
2021/10/27 21:46:58;;;;;;;7.07;3.07;;;;;;;7.98;73.49;99689.09;5093917;28;40703;-76
2021/10/27 21:49:25;;;;;;;4.10;2.10;;;;;;;7.94;73.39;99679.56;5110849;28;43594;-76
2021/10/27 21:51:53;;;;;;;4.63;3.13;;;;;;;7.93;73.68;99681.34;5093687;28;41181;-76
2021/10/27 21:54:21;;;;;;;4.27;2.60;;;;;;;7.92;73.81;99678.75;5110287;28;38788;-77
2021/10/27 21:56:50;;;;;;;2.53;2.33;;;;;;;7.78;73.90;99654.72;5110232;28;40963;-76
2021/10/27 21:59:17;;;;;;;2.73;2.50;;;;;;;7.85;73.51;99674.66;5110663;28;43461;-76
2021/10/27 22:01:46;;;;;;;2.70;2.40;;;;;;;7.82;73.45;99672.97;5109633;28;42519;-76
2021/10/27 22:04:14;;;;;;;3.63;2.47;;;;;;;7.79;73.56;99667.00;5093635;28;39163;-76
2021/10/27 22:06:41;;;;;;;2.67;2.00;;;;;;;7.76;73.70;99673.22;5110680;28;41661;-75
2021/10/27 22:09:09;;;;;;;3.00;2.37;;;;;;;7.74;73.77;99664.50;5109980;28;41719;-76
2021/10/27 22:11:37;;;;;;;2.27;2.07;;;;;;;7.72;73.82;99666.34;5110576;28;42343;-75
2021/10/27 22:14:08;;;;;;;3.67;2.80;;;;;;;7.61;73.85;99654.50;5109808;28;39873;-76
2021/10/27 22:16:37;;;;;;;3.77;2.87;;;;;;;7.68;73.96;99664.72;5109999;28;41696;-77
2021/10/27 22:19:04;;;;;;;3.30;2.37;;;;;;;7.66;74.35;99665.72;5110031;28;43245;-76
2021/10/27 22:21:32;;;;;;;5.13;4.10;;;;;;;7.62;74.47;99657.06;5089787;28;41187;-76
2021/10/27 22:23:59;;;;;;;3.60;3.27;;;;;;;7.58;74.05;99666.00;5090746;28;40133;-75
2021/10/27 22:26:27;;;;;;;5.20;3.20;;;;;;;7.54;74.01;99662.63;5105753;28;42365;-76
2021/10/27 22:28:55;;;;;;;6.60;4.00;;;;;;;7.50;73.93;99655.75;5090401;28;42703;-77
2021/10/27 22:31:23;;;;;;;4.97;2.77;;;;;;;7.48;74.32;99657.59;5072452;28;41301;-76
2021/10/27 22:33:51;;;;;;;4.23;2.67;;;;;;;7.45;74.22;99647.16;5090220;28;40063;-76
2021/10/27 22:36:19;;;;;;;4.03;2.90;;;;;;;7.37;74.48;99646.59;5088218;28;40139;-76
2021/10/27 22:38:47;;;;;;;3.30;2.47;;;;;;;7.40;74.63;99654.38;5089599;28;41714;-76
2021/10/27 22:41:15;;;;;;;4.60;3.27;;;;;;;7.36;74.80;99650.13;5090584;28;42274;-75
2021/10/27 22:43:43;;;;;;;4.40;2.80;;;;;;;7.33;74.76;99644.97;5089930;28;38857;-76
2021/10/27 22:46:11;;;;;;;3.43;2.47;;;;;;;7.31;74.71;99652.06;5088832;28;41823;-76
2021/10/27 22:48:40;;;;;;;4.10;2.73;;;;;;;7.24;74.77;99647.09;5089142;28;42992;-76
2021/10/27 22:51:08;;;;;;;3.43;2.13;;;;;;;7.21;74.77;99638.38;5123400;27;42805;-76
2021/10/27 22:53:36;;;;;;;3.87;2.40;;;;;;;7.07;74.40;99624.84;5105994;28;38955;-76
2021/10/27 22:56:03;;;;;;;3.67;2.60;;;;;;;7.21;74.60;99643.63;5106304;28;40722;-76
2021/10/27 22:58:35;;;;;;;2.70;2.47;;;;;;;7.07;74.77;99618.72;5089226;28;42891;-75
2021/10/27 23:01:06;;;;;;;2.30;1.93;;;;;;;7.16;74.50;99639.47;5089032;28;42072;-77
2021/10/27 23:03:48;;;;;;;2.30;2.10;;;;;;;7.15;74.61;99643.88;5122602;27;40019;-76
2021/10/27 23:06:19;;;;;;;4.23;2.73;;;;;;;7.13;74.51;99644.84;5105418;28;41729;-75
2021/10/27 23:41:56;;;;;;;2.47;2.17;;;;;;;7.00;76.31;99638.28;5108531;28;43217;-76
2021/10/27 23:44:34;;;;;;;3.63;1.97;;;;;;;6.96;75.99;99631.41;5107829;28;41850;-76
2021/10/27 23:47:04;;;;;;;3.17;2.30;;;;;;;6.93;75.85;99637.63;5110794;28;39730;-75
2021/10/27 23:49:34;;;;;;;5.13;2.97;;;;;;;6.88;75.48;99633.47;5094547;28;42252;-76
2021/10/27 23:52:06;;;;;;;3.07;2.27;;;;;;;6.83;75.66;99634.47;5112382;28;42738;-76
2021/10/27 23:54:44;;;;;;;2.33;1.80;;;;;;;6.79;75.53;99627.63;5112444;28;41788;-75
2021/10/27 23:57:17;;;;;;;2.20;1.97;;;;;;;6.71;75.65;99616.47;5111511;28;39710;-76
